Jacqueline A — WBL2486 — position and weather

sailwx.info

Track history (hours):
 
Tides and Currents Weather Stations Pressure Air Temp Water Temp Dewpoint Dewpoint Depression Visibility Wind Speed Wind Dir Waves Ship Positions

Jacqueline A

Owner: SEALAND TRANSPORT CO, URBANNA, VA. More information available from US FCC via Universal Licensing System and Coast Guard Vessel Documentation Center.

Last reported at 2017-Dec-17 14:22 UTC. Time now 2018-Jan-19 09:12 UTC.
Position N 39°12' W 076°35'.
Warning: this ship's position is 32 days out of date.

; draft 3 m.

Type: Towing. MMSI: 367299940.

Date/timePositionNaut miles runAvg speedWind from/ knotsBaromVisibWave heightAir tempDewpointWater temp
2017-Dec-17 14:22N 39°12' W 076°35'1 1.4
2017-Dec-17 13:59N 39°12' W 076°34'1 0.8
2017-Dec-17 13:17N 39°12' W 076°35'1 1.5
2017-Dec-17 12:54N 39°13' W 076°35'1 1.1
2017-Dec-17 12:24N 39°13' W 076°34'1 1.6
2017-Dec-17 11:53N 39°13' W 076°33'1 1.1
2017-Dec-17 11:25N 39°14' W 076°33'0 0.4
2017-Dec-17 10:55N 39°14' W 076°33'0 0.3
2017-Dec-17 10:21N 39°14' W 076°33'0 0.3
2017-Dec-17 09:19N 39°14' W 076°33'1 1.6
2017-Dec-17 08:59N 39°13' W 076°32'2 2.6
2017-Dec-17 08:17N 39°12' W 076°31'1 2.7
2017-Dec-17 07:59N 39°12' W 076°30'1 2.6
2017-Dec-17 07:31N 39°11' W 076°28'  
2017-Dec-11 21:15N 36°51' W 076°18'2 7.3
2017-Dec-11 21:00N 36°49' W 076°17'1 2.5
2017-Dec-11 20:30N 36°48' W 076°17'0 0.2
2017-Dec-11 20:00N 36°48' W 076°17'0 0.2
2017-Dec-11 19:30N 36°48' W 076°17'1 1.7
2017-Dec-11 19:00N 36°49' W 076°17'3 5.8
2017-Dec-11 18:30N 36°52' W 076°19'142 5.5
2017-Dec-10 16:50N 39°13' W 076°33'2 5.3
2017-Dec-10 16:30N 39°12' W 076°34'0 0.8
2017-Dec-10 15:59N 39°12' W 076°35'0 0.6
2017-Dec-10 15:24N 39°12' W 076°35'1 1.6
2017-Dec-10 14:49N 39°12' W 076°34'0 1.0
2017-Dec-10 14:30N 39°12' W 076°34'1 1.7
2017-Dec-10 14:00N 39°13' W 076°35'0 0.6
2017-Dec-10 13:27N 39°13' W 076°35'0 0.0
2017-Dec-10 12:59N 39°13' W 076°35'1 1.5
2017-Dec-10 12:30N 39°13' W 076°34'1 1.0
2017-Dec-10 11:59N 39°14' W 076°33'0 0.4
2017-Dec-10 11:30N 39°14' W 076°33'0 0.4
2017-Dec-10 10:55N 39°13' W 076°33'1 1.2
2017-Dec-10 10:28N 39°13' W 076°32'1 1.7
2017-Dec-10 10:00N 39°13' W 076°31'1 1.6
2017-Dec-10 09:11N 39°12' W 076°30'0 1.8
2017-Dec-10 09:00N 39°12' W 076°30'1 1.6
2017-Dec-10 08:30N 39°11' W 076°29'1 1.6
2017-Dec-10 08:00N 39°11' W 076°28'1 1.4
2017-Dec-10 07:28N 39°11' W 076°27'2 1.4
2017-Dec-10 06:16N 39°09' W 076°26'0 0.5
2017-Dec-10 05:25N 39°09' W 076°26'1 1.3
2017-Dec-10 05:00N 39°10' W 076°26'  
Track history (hours):
 
Tides and Currents Weather Stations Pressure Air Temp Water Temp Dewpoint Dewpoint Depression Visibility Wind Speed Wind Dir Waves Ship Positions

Jacqueline A

Owner: SEALAND TRANSPORT CO, URBANNA, VA. More information available from US FCC via Universal Licensing System and Coast Guard Vessel Documentation Center.

Last reported at 2017-Dec-17 14:22 UTC. Time now 2018-Jan-19 09:12 UTC.
Position N 39°12' W 076°35'.
Warning: this ship's position is 32 days out of date.

; draft 3 m.

Type: Towing. MMSI: 367299940.

Date/timePositionNaut miles runAvg speedWind from/ knotsBaromVisibWave heightAir tempDewpointWater temp
2017-Dec-17 14:22N 39°12' W 076°35'1 1.4
2017-Dec-17 13:59N 39°12' W 076°34'1 0.8
2017-Dec-17 13:17N 39°12' W 076°35'1 1.5
2017-Dec-17 12:54N 39°13' W 076°35'1 1.1
2017-Dec-17 12:24N 39°13' W 076°34'1 1.6
2017-Dec-17 11:53N 39°13' W 076°33'1 1.1
2017-Dec-17 11:25N 39°14' W 076°33'0 0.4
2017-Dec-17 10:55N 39°14' W 076°33'0 0.3
2017-Dec-17 10:21N 39°14' W 076°33'0 0.3
2017-Dec-17 09:19N 39°14' W 076°33'1 1.6
2017-Dec-17 08:59N 39°13' W 076°32'2 2.6
2017-Dec-17 08:17N 39°12' W 076°31'1 2.7
2017-Dec-17 07:59N 39°12' W 076°30'1 2.6
2017-Dec-17 07:31N 39°11' W 076°28'  
2017-Dec-11 21:15N 36°51' W 076°18'2 7.3
2017-Dec-11 21:00N 36°49' W 076°17'1 2.5
2017-Dec-11 20:30N 36°48' W 076°17'0 0.2
2017-Dec-11 20:00N 36°48' W 076°17'0 0.2
2017-Dec-11 19:30N 36°48' W 076°17'1 1.7
2017-Dec-11 19:00N 36°49' W 076°17'3 5.8
2017-Dec-11 18:30N 36°52' W 076°19'142 5.5
2017-Dec-10 16:50N 39°13' W 076°33'2 5.3
2017-Dec-10 16:30N 39°12' W 076°34'0 0.8
2017-Dec-10 15:59N 39°12' W 076°35'0 0.6
2017-Dec-10 15:24N 39°12' W 076°35'1 1.6
2017-Dec-10 14:49N 39°12' W 076°34'0 1.0
2017-Dec-10 14:30N 39°12' W 076°34'1 1.7
2017-Dec-10 14:00N 39°13' W 076°35'0 0.6
2017-Dec-10 13:27N 39°13' W 076°35'0 0.0
2017-Dec-10 12:59N 39°13' W 076°35'1 1.5
2017-Dec-10 12:30N 39°13' W 076°34'1 1.0
2017-Dec-10 11:59N 39°14' W 076°33'0 0.4
2017-Dec-10 11:30N 39°14' W 076°33'0 0.4
2017-Dec-10 10:55N 39°13' W 076°33'1 1.2
2017-Dec-10 10:28N 39°13' W 076°32'1 1.7
2017-Dec-10 10:00N 39°13' W 076°31'1 1.6
2017-Dec-10 09:11N 39°12' W 076°30'0 1.8
2017-Dec-10 09:00N 39°12' W 076°30'1 1.6
2017-Dec-10 08:30N 39°11' W 076°29'1 1.6
2017-Dec-10 08:00N 39°11' W 076°28'1 1.4
2017-Dec-10 07:28N 39°11' W 076°27'2 1.4
2017-Dec-10 06:16N 39°09' W 076°26'0 0.5
2017-Dec-10 05:25N 39°09' W 076°26'1 1.3
2017-Dec-10 05:00N 39°10' W 076°26'  

Dump ship's entire track history